Time;durP1;ratioP1;P1;durP2;ratioP2;P2;SDS_P1;SDS_P2;PMS_P1;PMS_P2;Temp;Humidity;BMP_temperature;BMP_pressure;BME280_temperature;BME280_humidity;BME280_pressure;Samples;Min_cycle;Max_cycle;Signal;HPM_P1;HPM_P2
2023/06/30 00:01:28;;;;;;;5.60;3.97;;;17.90;99.90;;;;;;5014959;28;20223;-64
2023/06/30 00:03:55;;;;;;;4.50;3.90;;;17.80;99.90;;;;;;5016948;28;20334;-64
2023/06/30 00:06:24;;;;;;;4.37;3.77;;;17.80;99.90;;;;;;5019650;28;20299;-63
2023/06/30 00:08:51;;;;;;;4.00;3.23;;;17.80;99.90;;;;;;5023533;28;20224;-63
2023/06/30 00:11:23;;;;;;;6.23;3.30;;;17.80;99.90;;;;;;5001355;28;20224;-63
2023/06/30 00:13:50;;;;;;;5.03;3.97;;;17.80;99.90;;;;;;5000327;28;20200;-65
2023/06/30 00:16:17;;;;;;;6.63;2.80;;;17.80;99.90;;;;;;5024067;28;20675;-65
2023/06/30 00:18:44;;;;;;;4.83;3.27;;;17.80;99.90;;;;;;5021751;28;20279;-64
2023/06/30 00:21:11;;;;;;;2.90;2.30;;;17.80;99.90;;;;;;5023108;28;20200;-65
2023/06/30 00:23:39;;;;;;;3.67;2.10;;;17.70;99.90;;;;;;5019092;28;20250;-64
2023/06/30 00:26:06;;;;;;;3.70;2.00;;;17.70;99.90;;;;;;5018596;28;20200;-64
2023/06/30 00:28:33;;;;;;;2.30;1.90;;;17.60;99.90;;;;;;4997678;28;20200;-63
2023/06/30 00:31:01;;;;;;;6.00;1.83;;;17.60;99.90;;;;;;5017510;28;20204;-53
2023/06/30 00:33:28;;;;;;;7.03;2.30;;;17.60;99.90;;;;;;5022119;28;20242;-56
2023/06/30 00:35:55;;;;;;;1.83;1.40;;;17.60;99.90;;;;;;5022039;28;20225;-51
2023/06/30 00:38:22;;;;;;;4.73;1.80;;;17.60;99.90;;;;;;5019781;28;20236;-57
2023/06/30 00:40:50;;;;;;;2.87;1.70;;;17.60;99.90;;;;;;5021382;28;20837;-54
2023/06/30 00:43:17;;;;;;;5.93;2.00;;;17.60;99.90;;;;;;4995428;28;20247;-50
2023/06/30 00:45:46;;;;;;;3.40;2.20;;;17.60;99.90;;;;;;5013151;28;20199;-50
2023/06/30 00:48:13;;;;;;;5.63;1.80;;;17.50;99.90;;;;;;5022217;28;20219;-57
2023/06/30 00:50:40;;;;;;;2.70;1.73;;;17.50;99.90;;;;;;5018016;28;20203;-51
2023/06/30 00:53:07;;;;;;;2.70;1.60;;;17.50;99.90;;;;;;5022156;28;20216;-53
2023/06/30 00:55:34;;;;;;;8.63;1.80;;;17.50;99.90;;;;;;5020707;28;20242;-57
2023/06/30 00:58:02;;;;;;;4.10;1.80;;;17.50;99.90;;;;;;4999674;28;20208;-54
2023/06/30 01:00:29;;;;;;;2.03;1.70;;;17.50;99.90;;;;;;5011340;28;20258;-57
2023/06/30 01:03:05;;;;;;;4.30;2.17;;;17.50;99.90;;;;;;5021737;28;20219;-54
2023/06/30 01:05:37;;;;;;;5.00;2.00;;;17.40;99.90;;;;;;5022044;28;20604;-59
2023/06/30 01:08:13;;;;;;;2.30;1.50;;;17.50;99.90;;;;;;5021799;28;20235;-54
2023/06/30 01:10:42;;;;;;;4.80;1.67;;;17.50;99.90;;;;;;5019758;28;20199;-50
2023/06/30 01:13:11;;;;;;;4.40;1.90;;;17.50;99.90;;;;;;5012705;28;20227;-53
2023/06/30 01:15:41;;;;;;;2.73;1.90;;;17.50;99.90;;;;;;4992567;28;20299;-48
2023/06/30 01:18:11;;;;;;;3.27;1.97;;;17.50;99.90;;;;;;5024402;28;20242;-52
2023/06/30 01:20:40;;;;;;;3.53;2.07;;;17.50;99.90;;;;;;5019062;28;20199;-51
2023/06/30 01:23:13;;;;;;;2.80;1.70;;;17.50;99.90;;;;;;5023530;28;20231;-52
2023/06/30 01:25:41;;;;;;;4.80;1.80;;;17.50;99.90;;;;;;5010421;28;20193;-50
2023/06/30 01:28:10;;;;;;;3.43;2.20;;;17.60;99.90;;;;;;5023213;28;20243;-49
2023/06/30 01:30:37;;;;;;;4.70;2.20;;;17.60;99.90;;;;;;4991319;28;20255;-56
2023/06/30 01:33:04;;;;;;;5.00;2.10;;;17.50;99.90;;;;;;5023011;28;20701;-51
2023/06/30 01:35:31;;;;;;;3.63;1.70;;;17.50;99.90;;;;;;5008159;28;20274;-57
2023/06/30 01:38:01;;;;;;;2.10;1.80;;;17.50;99.90;;;;;;5018152;28;20223;-48
2023/06/30 01:40:29;;;;;;;3.57;1.93;;;17.50;99.90;;;;;;5013037;28;20223;-56
2023/06/30 01:42:57;;;;;;;7.90;2.73;;;17.50;99.90;;;;;;5022120;28;20617;-50
2023/06/30 01:45:27;;;;;;;8.33;2.43;;;17.40;99.90;;;;;;4993628;28;20227;-58
2023/06/30 01:47:55;;;;;;;3.13;2.60;;;17.40;99.90;;;;;;5016563;28;20467;-54
2023/06/30 01:50:23;;;;;;;3.07;2.07;;;17.40;99.90;;;;;;5021679;28;20331;-56
2023/06/30 01:52:50;;;;;;;5.73;2.80;;;17.40;99.90;;;;;;5019386;28;20262;-47
2023/06/30 01:55:17;;;;;;;3.40;2.17;;;17.50;99.90;;;;;;5018550;28;20204;-56
2023/06/30 01:57:44;;;;;;;4.00;2.13;;;17.50;99.90;;;;;;5018486;28;20438;-53
2023/06/30 02:00:12;;;;;;;3.50;2.43;;;17.40;99.90;;;;;;4997007;28;20215;-54
2023/06/30 02:02:40;;;;;;;3.00;2.30;;;17.40;99.90;;;;;;5010857;28;20304;-51
2023/06/30 02:05:09;;;;;;;6.80;4.00;;;17.40;99.90;;;;;;5021560;28;20667;-49
2023/06/30 02:07:37;;;;;;;6.07;2.80;;;17.40;99.90;;;;;;5017816;28;20215;-52
2023/06/30 02:10:07;;;;;;;4.50;2.93;;;17.40;99.90;;;;;;5022475;28;20621;-53
2023/06/30 02:12:35;;;;;;;5.90;3.07;;;17.40;99.90;;;;;;5013465;28;20212;-57
2023/06/30 02:15:03;;;;;;;5.77;2.67;;;17.40;99.90;;;;;;5019963;28;20203;-48
2023/06/30 02:17:32;;;;;;;3.77;2.77;;;17.40;99.90;;;;;;4993269;28;20651;-57
2023/06/30 02:20:02;;;;;;;5.33;2.90;;;17.30;99.90;;;;;;5021978;28;20200;-54
2023/06/30 02:22:29;;;;;;;3.30;3.10;;;17.30;99.90;;;;;;5015773;28;20234;-57
2023/06/30 02:24:56;;;;;;;6.50;3.10;;;17.40;99.90;;;;;;5015372;28;20192;-53
2023/06/30 02:27:24;;;;;;;6.50;3.57;;;17.40;99.90;;;;;;5017567;28;20240;-56
2023/06/30 02:29:51;;;;;;;4.70;3.57;;;17.30;99.90;;;;;;5021447;28;20274;-51
2023/06/30 02:32:18;;;;;;;7.50;3.53;;;17.30;99.90;;;;;;5001004;28;20587;-56
2023/06/30 02:34:45;;;;;;;3.87;3.20;;;17.30;99.90;;;;;;5012569;28;20203;-53
2023/06/30 02:37:14;;;;;;;4.93;3.53;;;17.30;99.90;;;;;;5014591;28;20204;-49
2023/06/30 02:39:41;;;;;;;7.57;3.67;;;17.30;99.90;;;;;;5019221;28;20192;-47
2023/06/30 02:42:08;;;;;;;4.00;3.20;;;17.30;99.90;;;;;;5020310;28;20370;-46
2023/06/30 02:44:35;;;;;;;3.90;3.13;;;17.30;99.90;;;;;;5013116;28;20200;-56
2023/06/30 02:47:03;;;;;;;11.07;3.77;;;17.30;99.90;;;;;;4995669;28;20295;-52
2023/06/30 02:49:31;;;;;;;5.80;3.20;;;17.30;99.90;;;;;;5008948;28;20230;-56
2023/06/30 02:51:58;;;;;;;11.00;4.27;;;17.30;99.90;;;;;;5018393;28;20223;-51
2023/06/30 02:54:26;;;;;;;4.40;3.07;;;17.20;99.90;;;;;;5019194;28;20192;-55
2023/06/30 02:56:53;;;;;;;6.23;4.00;;;17.20;99.90;;;;;;5019234;28;21044;-48
2023/06/30 02:59:20;;;;;;;4.80;3.80;;;17.20;99.90;;;;;;5014426;28;20611;-49
2023/06/30 03:01:47;;;;;;;4.53;3.43;;;17.30;99.90;;;;;;5016549;28;20273;-53
2023/06/30 03:04:14;;;;;;;6.03;3.50;;;17.20;99.90;;;;;;5000677;28;20257;-54
2023/06/30 03:06:41;;;;;;;4.83;3.47;;;17.20;99.90;;;;;;5009696;28;20204;-48
2023/06/30 03:09:10;;;;;;;5.07;3.90;;;17.20;99.90;;;;;;5021436;28;20274;-51
2023/06/30 03:11:39;;;;;;;6.00;3.67;;;17.20;99.90;;;;;;5013585;28;20212;-52
2023/06/30 03:14:06;;;;;;;4.77;3.97;;;17.20;99.90;;;;;;5018738;28;20199;-50
2023/06/30 03:16:41;;;;;;;5.00;4.00;;;17.20;99.90;;;;;;5014790;28;20888;-51
2023/06/30 03:19:08;;;;;;;5.27;3.50;;;17.20;99.90;;;;;;4996125;28;20207;-54
2023/06/30 03:21:35;;;;;;;6.90;3.93;;;17.20;99.90;;;;;;5009632;28;20223;-58
2023/06/30 03:24:02;;;;;;;6.40;3.73;;;17.10;99.90;;;;;;5025904;28;20192;-56
2023/06/30 03:26:29;;;;;;;5.97;4.07;;;17.10;99.90;;;;;;5020438;28;20282;-58
2023/06/30 03:28:58;;;;;;;6.63;3.20;;;17.10;99.90;;;;;;5022936;28;20226;-52
2023/06/30 03:31:25;;;;;;;6.33;3.43;;;17.20;99.90;;;;;;5022431;28;20218;-54
2023/06/30 03:33:52;;;;;;;7.60;3.53;;;17.20;99.90;;;;;;4995988;28;20308;-49
2023/06/30 03:36:19;;;;;;;6.27;3.03;;;17.10;99.90;;;;;;5014133;28;20786;-53
2023/06/30 03:38:46;;;;;;;7.07;3.17;;;17.10;99.90;;;;;;5017352;28;20261;-54
2023/06/30 03:41:13;;;;;;;4.83;2.97;;;17.10;99.90;;;;;;5024614;28;20210;-55
2023/06/30 03:43:40;;;;;;;5.93;3.60;;;17.10;99.90;;;;;;5021262;28;20659;-53
2023/06/30 03:46:09;;;;;;;5.97;2.80;;;17.20;99.90;;;;;;5018905;28;20192;-56
2023/06/30 03:48:36;;;;;;;5.40;3.07;;;17.20;99.90;;;;;;5016301;28;20219;-49
2023/06/30 03:51:03;;;;;;;3.93;3.00;;;17.20;99.90;;;;;;4998817;28;20293;-51
2023/06/30 03:53:30;;;;;;;3.83;3.13;;;17.20;99.90;;;;;;5016985;28;20577;-52
2023/06/30 03:55:58;;;;;;;4.43;2.77;;;17.20;99.90;;;;;;5020153;28;20200;-54
2023/06/30 03:58:27;;;;;;;3.67;2.67;;;17.20;99.90;;;;;;5023940;28;20198;-52
2023/06/30 04:00:54;;;;;;;10.13;3.07;;;17.10;99.90;;;;;;5017980;28;20675;-55
2023/06/30 04:03:22;;;;;;;4.10;2.20;;;17.00;99.90;;;;;;5021891;28;20208;-54
2023/06/30 04:05:49;;;;;;;4.53;2.37;;;17.00;99.90;;;;;;5002218;28;20200;-54
2023/06/30 04:08:16;;;;;;;4.20;1.87;;;16.90;99.90;;;;;;5016111;28;20235;-53
2023/06/30 04:10:43;;;;;;;4.47;2.00;;;16.80;99.90;;;;;;5013149;28;20262;-53
2023/06/30 04:13:10;;;;;;;5.07;1.87;;;16.80;99.90;;;;;;5013898;28;20218;-51
2023/06/30 04:15:37;;;;;;;2.07;1.60;;;16.80;99.90;;;;;;5022816;28;20201;-56
2023/06/30 04:18:05;;;;;;;6.90;2.23;;;16.70;99.90;;;;;;5019719;28;20192;-51
2023/06/30 04:20:33;;;;;;;6.40;1.80;;;16.80;99.90;;;;;;5003962;28;20220;-54
2023/06/30 04:23:00;;;;;;;2.87;1.80;;;16.80;99.90;;;;;;5018345;28;20305;-53
2023/06/30 04:25:27;;;;;;;2.67;1.37;;;16.70;99.90;;;;;;5015213;28;20220;-51
2023/06/30 04:27:54;;;;;;;2.60;1.47;;;16.70;99.90;;;;;;5021662;28;20258;-53
2023/06/30 04:30:21;;;;;;;2.80;1.73;;;16.70;99.90;;;;;;5025972;28;20274;-57
2023/06/30 04:32:47;;;;;;;4.27;1.83;;;16.60;99.90;;;;;;5012207;28;20212;-58
2023/06/30 04:35:15;;;;;;;2.93;2.27;;;16.60;99.90;;;;;;5021542;28;20203;-59
2023/06/30 04:37:44;;;;;;;2.63;2.43;;;16.60;99.90;;;;;;4999346;28;20617;-58
2023/06/30 04:40:11;;;;;;;4.13;2.30;;;16.70;99.90;;;;;;5017458;28;20214;-52
2023/06/30 04:42:38;;;;;;;2.67;2.10;;;16.70;99.90;;;;;;5017831;28;20220;-59
2023/06/30 04:45:06;;;;;;;3.30;1.87;;;16.70;99.90;;;;;;5022117;28;20196;-57
2023/06/30 04:47:33;;;;;;;5.00;2.30;;;16.70;99.90;;;;;;5018527;28;20199;-58
2023/06/30 04:50:00;;;;;;;3.23;2.30;;;16.70;99.90;;;;;;5021654;28;20208;-55
2023/06/30 04:52:27;;;;;;;4.00;2.00;;;16.80;99.90;;;;;;5003069;28;20229;-59
2023/06/30 04:54:56;;;;;;;4.63;2.00;;;16.80;99.90;;;;;;5021973;28;20590;-58
2023/06/30 04:57:23;;;;;;;3.23;1.80;;;16.80;99.90;;;;;;5016338;28;20208;-57
2023/06/30 04:59:51;;;;;;;4.60;1.60;;;16.80;99.90;;;;;;5013520;28;20818;-60
2023/06/30 05:02:18;;;;;;;3.73;1.63;;;16.80;99.90;;;;;;5024245;28;20222;-60
2023/06/30 05:04:45;;;;;;;3.30;1.60;;;16.80;99.90;;;;;;5019534;28;20466;-60
2023/06/30 05:07:12;;;;;;;4.80;1.50;;;16.90;99.90;;;;;;5024039;28;20196;-55
2023/06/30 05:09:38;;;;;;;1.40;1.30;;;16.90;99.90;;;;;;4996360;28;20223;-57
2023/06/30 05:12:08;;;;;;;2.10;0.90;;;17.00;99.90;;;;;;5010408;28;20471;-51
2023/06/30 05:14:35;;;;;;;2.00;0.80;;;16.90;99.90;;;;;;5022928;28;20623;-58
2023/06/30 05:17:02;;;;;;;3.00;1.40;;;16.80;99.90;;;;;;5021257;28;20265;-57
2023/06/30 05:19:29;;;;;;;3.13;1.30;;;16.80;99.90;;;;;;5019642;28;20282;-58
2023/06/30 05:21:56;;;;;;;3.47;1.37;;;16.80;99.90;;;;;;5017861;28;20218;-49
2023/06/30 05:24:22;;;;;;;1.83;0.93;;;16.90;99.90;;;;;;4997273;28;20778;-49
2023/06/30 05:26:49;;;;;;;0.77;0.77;;;16.80;99.90;;;;;;5009841;28;20227;-51
2023/06/30 05:29:17;;;;;;;3.33;1.37;;;16.90;99.90;;;;;;5024438;28;20595;-48
2023/06/30 05:31:44;;;;;;;1.93;1.00;;;16.90;99.90;;;;;;5018935;28;20220;-50
2023/06/30 05:34:15;;;;;;;2.10;1.07;;;16.90;99.90;;;;;;5019770;28;20949;-56
2023/06/30 05:36:43;;;;;;;2.77;1.33;;;16.90;99.90;;;;;;5009200;28;20219;-58
2023/06/30 05:39:10;;;;;;;1.90;1.10;;;17.00;99.90;;;;;;4999633;28;20923;-53
2023/06/30 05:41:37;;;;;;;2.67;1.10;;;16.90;99.90;;;;;;5012362;28;20227;-57
2023/06/30 05:44:06;;;;;;;2.50;1.13;;;16.90;99.90;;;;;;5016540;28;20196;-54
2023/06/30 05:46:37;;;;;;;6.13;2.07;;;17.00;99.90;;;;;;5018547;28;20783;-56
2023/06/30 05:49:05;;;;;;;3.10;1.50;;;17.00;99.90;;;;;;5014630;28;20215;-52
2023/06/30 05:51:33;;;;;;;2.43;1.20;;;17.00;99.90;;;;;;5023472;28;20228;-54
2023/06/30 05:54:00;;;;;;;3.20;1.30;;;17.00;99.90;;;;;;5004316;28;20196;-51
2023/06/30 05:56:26;;;;;;;4.73;1.40;;;16.90;99.90;;;;;;5015346;28;20286;-47
2023/06/30 05:58:53;;;;;;;3.33;1.40;;;17.00;99.90;;;;;;5008835;28;20709;-52
2023/06/30 06:01:20;;;;;;;1.50;1.03;;;17.00;99.90;;;;;;5020900;28;20580;-48
2023/06/30 06:03:48;;;;;;;8.53;1.33;;;17.00;99.90;;;;;;5019854;28;20200;-50
2023/06/30 06:06:15;;;;;;;3.10;1.37;;;16.90;99.90;;;;;;5023363;28;20325;-44
2023/06/30 06:08:44;;;;;;;1.33;1.07;;;16.90;99.90;;;;;;5009539;28;20253;-53
2023/06/30 06:11:11;;;;;;;3.40;1.40;;;16.90;99.90;;;;;;4996427;28;20285;-49
2023/06/30 06:13:38;;;;;;;4.97;1.67;;;16.80;99.90;;;;;;5013532;28;20227;-56
2023/06/30 06:16:07;;;;;;;2.50;1.13;;;16.80;99.90;;;;;;5010988;28;20206;-50
2023/06/30 06:18:34;;;;;;;3.43;1.10;;;16.80;99.90;;;;;;5021707;28;20197;-53
2023/06/30 06:21:03;;;;;;;5.97;1.43;;;16.80;99.90;;;;;;5019395;28;20277;-53
2023/06/30 06:23:30;;;;;;;1.90;1.20;;;16.70;99.90;;;;;;5017680;28;20203;-46
2023/06/30 06:25:57;;;;;;;3.90;1.60;;;16.70;99.90;;;;;;4990809;28;20319;-48
2023/06/30 06:28:24;;;;;;;3.63;1.23;;;16.70;99.90;;;;;;5016195;28;20216;-47
2023/06/30 06:30:50;;;;;;;2.80;1.17;;;16.70;99.90;;;;;;5019523;28;20230;-55
2023/06/30 06:33:17;;;;;;;4.33;1.40;;;16.60;99.90;;;;;;5019808;28;20244;-52
2023/06/30 06:35:44;;;;;;;6.67;1.30;;;16.60;99.90;;;;;;5012207;28;20204;-51
2023/06/30 06:38:16;;;;;;;2.97;1.23;;;16.60;99.90;;;;;;5022108;28;20207;-44
2023/06/30 06:40:43;;;;;;;3.00;0.80;;;16.60;99.90;;;;;;4998575;28;20196;-55
2023/06/30 06:43:10;;;;;;;3.83;1.40;;;16.60;99.90;;;;;;5012970;28;20829;-48
2023/06/30 06:45:37;;;;;;;3.80;1.10;;;16.70;99.90;;;;;;5012830;28;20215;-52
2023/06/30 06:48:21;;;;;;;2.80;1.00;;;16.70;99.90;;;;;;5011613;28;20345;-44
2023/06/30 06:50:49;;;;;;;3.83;1.47;;;16.70;99.90;;;;;;5011583;28;20897;-54
2023/06/30 06:53:20;;;;;;;2.53;1.00;;;16.70;99.90;;;;;;5016546;28;20212;-49
2023/06/30 06:55:48;;;;;;;4.17;1.30;;;16.70;99.90;;;;;;4997703;28;20208;-57
2023/06/30 06:58:15;;;;;;;3.77;1.10;;;16.70;99.90;;;;;;5012711;28;20286;-63
2023/06/30 07:00:42;;;;;;;3.57;1.20;;;16.70;99.90;;;;;;5010023;28;20250;-63
2023/06/30 07:03:09;;;;;;;2.43;1.00;;;16.70;99.90;;;;;;5019154;28;20567;-64
2023/06/30 07:05:36;;;;;;;3.00;0.97;;;16.70;99.90;;;;;;5020596;28;20196;-62
2023/06/30 07:08:04;;;;;;;2.00;0.97;;;16.70;99.90;;;;;;5018129;28;20265;-62
2023/06/30 07:10:33;;;;;;;2.67;1.07;;;16.80;99.90;;;;;;4990500;28;20297;-62
2023/06/30 07:13:00;;;;;;;2.37;1.00;;;16.90;99.90;;;;;;5014379;28;20215;-44
2023/06/30 07:15:26;;;;;;;2.77;1.30;;;17.00;99.90;;;;;;5007127;28;20224;-44
2023/06/30 07:17:53;;;;;;;2.33;1.10;;;17.10;99.90;;;;;;5017284;28;20911;-52
2023/06/30 07:20:20;;;;;;;4.63;1.70;;;17.20;99.90;;;;;;5020664;28;20238;-53
2023/06/30 07:22:47;;;;;;;4.10;1.10;;;17.20;99.90;;;;;;5007695;28;20246;-52
2023/06/30 07:25:14;;;;;;;4.13;1.13;;;17.40;99.90;;;;;;4995025;28;20287;-48
2023/06/30 07:27:49;;;;;;;3.00;1.50;;;17.40;99.90;;;;;;5020438;28;20200;-47
2023/06/30 07:30:17;;;;;;;5.40;1.60;;;17.40;99.90;;;;;;5013296;28;20269;-49
2023/06/30 07:32:43;;;;;;;2.57;1.10;;;17.50;99.90;;;;;;5011442;28;20216;-49
2023/06/30 07:35:10;;;;;;;2.93;1.33;;;17.50;99.90;;;;;;5006833;28;20258;-51
2023/06/30 07:37:38;;;;;;;1.90;1.47;;;17.60;99.90;;;;;;5015730;28;20253;-45
2023/06/30 07:40:07;;;;;;;2.93;1.10;;;17.60;99.90;;;;;;4993851;28;20211;-52
2023/06/30 07:42:34;;;;;;;3.10;1.40;;;17.70;99.90;;;;;;5020850;28;20245;-48
2023/06/30 07:45:02;;;;;;;3.73;1.23;;;17.60;99.90;;;;;;5018016;28;20226;-51
2023/06/30 07:47:29;;;;;;;4.63;0.83;;;17.70;99.90;;;;;;5002372;28;20658;-51
2023/06/30 07:49:55;;;;;;;2.57;1.33;;;17.70;99.90;;;;;;5017875;28;20269;-51
2023/06/30 07:52:22;;;;;;;3.27;0.87;;;17.70;99.90;;;;;;5021471;28;20228;-51
2023/06/30 07:54:53;;;;;;;2.53;1.03;;;17.70;99.90;;;;;;5011625;28;20655;-49
2023/06/30 07:57:19;;;;;;;5.50;1.70;;;17.70;99.90;;;;;;4998112;28;20581;-52
2023/06/30 07:59:46;;;;;;;3.37;1.23;;;17.70;99.90;;;;;;5006407;28;20200;-52
2023/06/30 08:02:14;;;;;;;2.53;1.23;;;17.70;99.90;;;;;;5004157;28;20215;-52
2023/06/30 08:04:41;;;;;;;6.60;1.33;;;17.70;99.90;;;;;;5009007;28;20296;-50
2023/06/30 08:07:08;;;;;;;1.57;0.93;;;17.80;99.90;;;;;;5015650;28;20226;-51
2023/06/30 08:09:35;;;;;;;3.37;1.17;;;17.80;99.90;;;;;;5011329;28;20220;-48
2023/06/30 08:12:02;;;;;;;4.00;1.10;;;17.80;99.90;;;;;;5000418;28;20308;-51
2023/06/30 08:14:29;;;;;;;3.10;1.33;;;17.80;99.90;;;;;;5015839;28;20888;-50
2023/06/30 08:16:55;;;;;;;3.40;1.07;;;17.80;99.90;;;;;;5023976;28;20204;-53
2023/06/30 08:19:24;;;;;;;2.87;1.17;;;17.80;99.90;;;;;;5006016;28;20229;-51
2023/06/30 08:21:50;;;;;;;2.67;0.90;;;17.80;99.90;;;;;;5008964;28;20278;-50
2023/06/30 08:24:17;;;;;;;1.17;1.07;;;17.90;99.90;;;;;;5012179;28;20616;-52
2023/06/30 08:26:44;;;;;;;2.80;0.80;;;18.10;99.90;;;;;;5013644;28;20670;-46
2023/06/30 08:29:11;;;;;;;3.47;0.77;;;18.30;99.90;;;;;;5011670;28;20239;-48
2023/06/30 08:31:38;;;;;;;3.73;0.80;;;18.40;99.90;;;;;;5024555;28;20571;-50
2023/06/30 08:34:05;;;;;;;1.73;0.93;;;18.50;99.90;;;;;;5010312;28;20211;-52
2023/06/30 08:36:33;;;;;;;3.07;1.33;;;18.60;99.90;;;;;;5019555;28;20746;-52
2023/06/30 08:39:00;;;;;;;2.77;0.60;;;18.60;99.90;;;;;;5015063;28;23108;-49
2023/06/30 08:41:28;;;;;;;2.10;0.60;;;18.80;99.90;;;;;;5022326;28;20223;-48
2023/06/30 08:43:59;;;;;;;1.53;0.80;;;18.80;99.90;;;;;;4998690;28;20208;-47
2023/06/30 08:46:27;;;;;;;3.53;0.80;;;18.80;99.90;;;;;;5007631;28;20208;-47
2023/06/30 08:48:54;;;;;;;4.20;0.80;;;18.90;99.90;;;;;;5022277;28;21217;-54
2023/06/30 08:51:22;;;;;;;0.80;0.60;;;18.90;99.90;;;;;;5012356;28;20290;-51
2023/06/30 08:53:51;;;;;;;2.23;0.70;;;18.90;99.90;;;;;;5023137;28;20204;-54
2023/06/30 08:56:18;;;;;;;1.57;0.80;;;19.00;99.90;;;;;;5016029;28;20207;-51
2023/06/30 08:58:45;;;;;;;1.43;1.00;;;19.10;99.90;;;;;;4997040;28;20195;-48
2023/06/30 09:01:14;;;;;;;3.23;0.93;;;19.20;99.90;;;;;;5020879;28;20196;-51
2023/06/30 09:03:41;;;;;;;1.87;0.77;;;19.20;99.90;;;;;;5023329;28;20219;-52
2023/06/30 09:06:10;;;;;;;2.73;0.70;;;19.20;99.90;;;;;;5017811;28;20239;-48
2023/06/30 09:08:45;;;;;;;2.63;0.70;;;19.30;99.90;;;;;;5016239;28;20932;-49
2023/06/30 09:11:16;;;;;;;2.33;0.90;;;19.30;99.90;;;;;;5010834;28;20238;-53
2023/06/30 09:13:44;;;;;;;2.07;0.60;;;19.40;99.90;;;;;;4997673;28;20265;-49
2023/06/30 09:16:15;;;;;;;2.10;0.80;;;19.40;99.90;;;;;;5022869;28;20729;-53
2023/06/30 09:18:43;;;;;;;1.73;0.67;;;19.40;99.90;;;;;;5022056;28;20235;-55
2023/06/30 09:21:11;;;;;;;3.10;0.70;;;19.40;99.90;;;;;;5014523;28;20212;-49
2023/06/30 09:23:39;;;;;;;1.63;0.80;;;19.50;99.90;;;;;;5013595;28;20206;-54
2023/06/30 09:26:14;;;;;;;2.27;1.10;;;19.60;99.90;;;;;;5016426;28;20203;-52
2023/06/30 09:28:42;;;;;;;2.83;0.83;;;19.70;99.90;;;;;;5001553;28;20382;-56
2023/06/30 09:31:09;;;;;;;1.30;0.80;;;19.80;99.90;;;;;;5023868;28;20226;-54
2023/06/30 09:33:37;;;;;;;2.33;1.20;;;19.60;99.90;;;;;;5017073;28;20265;-53
2023/06/30 09:36:04;;;;;;;1.27;0.60;;;19.50;99.90;;;;;;5021838;28;20203;-54
2023/06/30 09:38:31;;;;;;;4.20;0.80;;;19.50;99.90;;;;;;5008211;28;20203;-55
2023/06/30 09:40:58;;;;;;;6.00;0.97;;;19.50;99.90;;;;;;5018046;28;20203;-56
2023/06/30 09:43:27;;;;;;;3.37;1.00;;;19.70;99.90;;;;;;5000500;28;20263;-53
2023/06/30 09:45:56;;;;;;;2.00;0.80;;;19.80;99.90;;;;;;5018290;28;20194;-55
2023/06/30 09:48:27;;;;;;;2.37;1.30;;;19.90;99.90;;;;;;5020472;28;20222;-54
2023/06/30 09:50:54;;;;;;;3.57;0.70;;;19.90;99.90;;;;;;5010090;28;20243;-53
2023/06/30 09:53:21;;;;;;;1.00;0.83;;;20.00;99.90;;;;;;5011344;28;20238;-49
2023/06/30 09:55:49;;;;;;;3.77;1.00;;;20.00;99.90;;;;;;5014651;28;20231;-49
2023/06/30 09:58:17;;;;;;;1.33;0.70;;;20.00;99.90;;;;;;5012785;28;20579;-50
2023/06/30 10:00:46;;;;;;;1.10;0.70;;;20.10;99.90;;;;;;5000545;28;20276;-46
2023/06/30 10:03:16;;;;;;;1.00;0.73;;;20.20;99.90;;;;;;5020538;28;20244;-47
2023/06/30 10:05:44;;;;;;;4.17;0.97;;;20.30;99.90;;;;;;5020345;28;20214;-51
2023/06/30 10:08:12;;;;;;;0.83;0.60;;;20.10;99.90;;;;;;5015070;28;20266;-52
2023/06/30 10:10:42;;;;;;;1.73;0.80;;;20.10;99.90;;;;;;5013807;28;20222;-48
2023/06/30 10:13:10;;;;;;;1.80;0.57;;;20.10;99.90;;;;;;5019386;28;20227;-47
2023/06/30 10:15:38;;;;;;;1.70;0.67;;;20.00;99.90;;;;;;5000751;28;20250;-43
2023/06/30 10:18:09;;;;;;;0.60;0.60;;;20.10;99.90;;;;;;5017639;28;20196;-48
2023/06/30 10:20:36;;;;;;;3.17;0.87;;;20.10;99.90;;;;;;5017852;28;20200;-48
2023/06/30 10:23:04;;;;;;;2.77;0.80;;;20.00;99.90;;;;;;5014643;28;20212;-49
2023/06/30 10:25:32;;;;;;;1.67;0.90;;;19.90;99.90;;;;;;5010615;28;20212;-45
2023/06/30 10:27:59;;;;;;;7.10;1.17;;;19.80;99.90;;;;;;5010312;28;20235;-47
2023/06/30 10:30:26;;;;;;;2.33;0.80;;;19.80;99.90;;;;;;4998301;28;20234;-46
2023/06/30 10:32:53;;;;;;;0.83;0.70;;;19.90;99.90;;;;;;5016157;28;20235;-49
2023/06/30 10:35:22;;;;;;;2.27;0.87;;;20.00;99.90;;;;;;5017402;28;20200;-46
2023/06/30 10:37:49;;;;;;;1.27;0.80;;;20.10;99.90;;;;;;5014969;28;20202;-47
2023/06/30 10:40:26;;;;;;;2.30;0.93;;;20.20;99.90;;;;;;5013708;28;20211;-48
2023/06/30 10:42:55;;;;;;;2.87;1.00;;;20.40;99.90;;;;;;5012003;28;20251;-46
2023/06/30 10:45:27;;;;;;;0.97;0.90;;;20.40;99.90;;;;;;5009040;28;20219;-47
2023/06/30 10:47:54;;;;;;;0.90;0.80;;;20.50;99.90;;;;;;5014968;28;20242;-47
2023/06/30 10:50:23;;;;;;;1.63;0.70;;;20.60;99.90;;;;;;5021429;28;20224;-45
2023/06/30 10:52:51;;;;;;;2.33;0.80;;;20.70;99.90;;;;;;5021200;28;20208;-52
2023/06/30 10:55:21;;;;;;;1.47;0.80;;;20.80;99.90;;;;;;5013336;28;20278;-49
2023/06/30 10:57:53;;;;;;;3.90;0.93;;;20.80;99.90;;;;;;5006835;28;20232;-47
2023/06/30 11:00:22;;;;;;;1.50;0.70;;;21.10;99.90;;;;;;5007377;28;20200;-44
2023/06/30 11:02:50;;;;;;;1.30;0.77;;;21.40;99.50;;;;;;5009428;28;20218;-45
2023/06/30 11:05:23;;;;;;;1.13;0.80;;;21.50;98.90;;;;;;5020847;28;20199;-47
2023/06/30 11:07:52;;;;;;;1.23;0.93;;;21.50;98.90;;;;;;5010777;28;20196;-45
2023/06/30 11:10:34;;;;;;;0.98;0.63;;;21.30;98.70;;;;;;4999090;28;20243;-45
2023/06/30 11:13:03;;;;;;;1.45;0.77;;;21.10;95.40;;;;;;5005776;28;20227;-47
2023/06/30 11:15:38;;;;;;;0.80;0.80;;;20.90;97.50;;;;;;5007084;28;20216;-49
2023/06/30 11:18:06;;;;;;;0.60;0.60;;;20.90;96.70;;;;;;4999476;28;20215;-48
2023/06/30 11:20:35;;;;;;;1.55;0.47;;;20.90;96.50;;;;;;5012034;28;20188;-49
2023/06/30 11:23:03;;;;;;;2.53;0.68;;;20.90;95.50;;;;;;5004058;28;20351;-49
2023/06/30 11:25:31;;;;;;;0.85;0.55;;;20.90;94.90;;;;;;5014732;28;20207;-48
2023/06/30 11:28:01;;;;;;;0.93;0.60;;;21.00;94.50;;;;;;5003763;28;20224;-48
2023/06/30 11:30:29;;;;;;;1.58;0.50;;;21.10;94.90;;;;;;5013621;28;20212;-49
2023/06/30 11:32:58;;;;;;;0.90;0.63;;;21.30;95.70;;;;;;4991876;28;20328;-47
2023/06/30 11:35:26;;;;;;;1.60;0.70;;;21.30;94.70;;;;;;5018199;28;20573;-45
2023/06/30 11:37:54;;;;;;;0.95;0.50;;;21.40;94.90;;;;;;5019287;28;20254;-51
2023/06/30 11:40:22;;;;;;;0.60;0.50;;;21.40;94.60;;;;;;5018639;28;20184;-47
2023/06/30 11:42:49;;;;;;;2.97;1.15;;;21.30;94.40;;;;;;5014121;28;20231;-45
2023/06/30 11:45:20;;;;;;;2.13;0.80;;;21.50;96.00;;;;;;5002907;28;20204;-50
2023/06/30 11:47:49;;;;;;;2.40;0.90;;;21.50;95.40;;;;;;5002900;28;20214;-45
2023/06/30 11:50:17;;;;;;;1.75;0.60;;;21.60;96.20;;;;;;5016611;28;20849;-48
2023/06/30 11:52:44;;;;;;;1.50;0.80;;;21.80;95.90;;;;;;5020697;28;20620;-49
2023/06/30 11:55:14;;;;;;;1.88;0.70;;;21.80;95.00;;;;;;5023468;28;20255;-52
2023/06/30 11:57:42;;;;;;;1.20;0.73;;;21.90;95.40;;;;;;5011881;28;20211;-45
2023/06/30 12:00:11;;;;;;;1.67;0.70;;;21.80;94.90;;;;;;5015957;28;20223;-51
2023/06/30 12:02:59;;;;;;;1.95;0.80;;;21.80;94.50;;;;;;4994730;28;20234;-49
2023/06/30 12:05:27;;;;;;;1.58;0.80;;;21.80;94.00;;;;;;5019399;28;20219;-56
2023/06/30 12:07:56;;;;;;;3.22;1.10;;;21.80;93.60;;;;;;5021462;28;20869;-55
2023/06/30 12:10:36;;;;;;;0.98;0.60;;;21.80;92.90;;;;;;5020388;28;20243;-57
2023/06/30 12:13:06;;;;;;;2.13;0.90;;;21.90;92.00;;;;;;5015393;28;22089;-51
2023/06/30 12:15:33;;;;;;;1.35;0.77;;;21.90;92.90;;;;;;5018082;28;20208;-51
2023/06/30 12:18:04;;;;;;;1.42;0.85;;;22.00;92.60;;;;;;5015165;28;20200;-54
2023/06/30 12:20:35;;;;;;;3.70;0.80;;;22.00;92.50;;;;;;4997468;28;20269;-53
2023/06/30 12:23:03;;;;;;;0.88;0.60;;;22.10;92.70;;;;;;5018722;28;20216;-48
2023/06/30 12:25:33;;;;;;;3.40;0.90;;;22.20;92.90;;;;;;5022796;28;20196;-54
2023/06/30 12:28:02;;;;;;;2.00;0.85;;;22.20;92.60;;;;;;5021488;28;20435;-51
2023/06/30 12:30:29;;;;;;;1.13;0.77;;;22.40;92.60;;;;;;5008930;28;20302;-47
2023/06/30 12:32:58;;;;;;;0.90;0.73;;;22.30;92.20;;;;;;5008779;28;20224;-46
2023/06/30 12:35:32;;;;;;;1.08;0.80;;;22.30;92.50;;;;;;5004200;28;20257;-46
2023/06/30 12:38:00;;;;;;;3.90;0.85;;;22.30;92.40;;;;;;5015100;28;21019;-50
2023/06/30 12:40:29;;;;;;;4.25;1.17;;;22.20;92.70;;;;;;5023546;28;20569;-47
2023/06/30 12:42:57;;;;;;;0.80;0.75;;;22.20;91.90;;;;;;5021210;28;20222;-49
2023/06/30 12:45:24;;;;;;;1.33;1.15;;;22.30;92.10;;;;;;4997347;28;20215;-47
2023/06/30 12:47:51;;;;;;;3.35;0.88;;;22.30;91.90;;;;;;5016678;28;20651;-44
2023/06/30 12:50:18;;;;;;;0.90;0.80;;;22.50;91.70;;;;;;4994243;28;20224;-47